Main page
METAR-TAF:

METAR-TAF

Airports :

Oil platform

Heimdal, Norway

latitude: 59-34-12N, longitude: 2-13-48E, elevation: 10 m

Current weather observation

The report was made 39 minutes ago, at 22:20 UTC
Wind 21 kt from the East/Southeast
Temperature 9°C
Humidity 66%
Pressure 1011 hPa
Visibility 10 km or more

METAR: ENHM 212220Z AUTO 12021KT 9999NDV FEW037/// 09/03 Q1011 W09/S3

Time: 23:59 (22:59 UTC)

Forecast

The report was made 8 hours and 59 minutes ago, at 14:00 UTC
Forecast valid from 21 at 15 UTC to 21 at 18 UTC
Wind 18 kt from the East/Southeast
Visibility 10 km or more
Broken clouds at a height of 3000 ft

TAF: ENHM 211400Z 2115/2118 11018KT 9999 BKN030

Weather observations and forecasts of more than 4000 airports (METAR and TAF reports).

The available stations are represented by yellow and red dots on the map.

Hover mouse over dot to see the name of the station.

Then click to see weather observations and forecasts.

To change the map : click on the green buttons with a black cross to zoom in, on the green button with a dash to zoom out, or on the green arrows for adjacent maps.


METAR-TAF: